createdAt,value
2018-11-25T00:00:31.398Z,997.21
2018-11-25T00:01:31.356Z,997.20
2018-11-25T00:02:31.373Z,997.21
2018-11-25T00:03:31.569Z,997.23
2018-11-25T00:04:31.336Z,997.22
2018-11-25T00:05:31.316Z,997.23
2018-11-25T00:06:31.400Z,997.22
2018-11-25T00:07:34.836Z,997.20
2018-11-25T00:08:31.321Z,997.21
2018-11-25T00:09:31.274Z,997.26
2018-11-25T00:10:31.274Z,997.21
2018-11-25T00:11:35.295Z,997.23
2018-11-25T00:12:31.239Z,997.20
2018-11-25T00:13:31.259Z,997.27
2018-11-25T00:14:31.246Z,997.25
2018-11-25T00:15:31.205Z,997.24
2018-11-25T00:16:31.198Z,997.19
2018-11-25T00:17:31.191Z,997.24
2018-11-25T00:18:31.177Z,997.22
2018-11-25T00:19:31.209Z,997.25
2018-11-25T00:20:31.206Z,997.28
2018-11-25T00:21:31.146Z,997.26
2018-11-25T00:22:31.135Z,997.28
2018-11-25T00:23:31.122Z,997.23
2018-11-25T00:24:31.113Z,997.29
2018-11-25T00:25:31.179Z,997.34
2018-11-25T00:26:31.121Z,997.31
2018-11-25T00:27:31.080Z,997.31
2018-11-25T00:28:31.072Z,997.31
2018-11-25T00:29:31.065Z,997.30
2018-11-25T00:30:31.050Z,997.30
2018-11-25T00:31:31.108Z,997.31
2018-11-25T00:32:31.064Z,997.34
2018-11-25T00:33:31.018Z,997.21
2018-11-25T00:34:31.008Z,997.24
2018-11-25T00:35:31.002Z,997.31
2018-11-25T00:36:30.987Z,997.31
2018-11-25T00:37:31.009Z,997.23
2018-11-25T00:38:31.002Z,997.19
2018-11-25T00:39:30.959Z,997.31
2018-11-25T00:40:30.959Z,997.25
2018-11-25T00:41:30.950Z,997.26
2018-11-25T00:42:30.927Z,997.25
2018-11-25T00:43:30.929Z,997.22
2018-11-25T00:44:30.936Z,997.20
2018-11-25T00:45:30.893Z,997.17
2018-11-25T00:46:30.883Z,997.17
2018-11-25T00:47:30.875Z,997.16
2018-11-25T00:48:30.864Z,997.18
2018-11-25T00:49:30.881Z,997.13
2018-11-25T00:50:30.889Z,997.20
2018-11-25T00:51:30.829Z,997.20
2018-11-25T00:52:30.820Z,997.16
2018-11-25T00:53:30.820Z,997.21
2018-11-25T00:54:30.815Z,997.17
2018-11-25T00:55:30.855Z,997.21
2018-11-25T00:56:30.808Z,997.19
2018-11-25T00:57:30.777Z,997.19
2018-11-25T00:58:30.761Z,997.19
2018-11-25T00:59:30.747Z,997.18
2018-11-25T01:00:30.738Z,997.18
2018-11-25T01:01:30.750Z,997.18
2018-11-25T01:02:30.755Z,997.20
2018-11-25T01:03:30.719Z,997.23
2018-11-25T01:04:30.693Z,997.20
2018-11-25T01:05:30.689Z,997.16
2018-11-25T01:06:30.676Z,997.18
2018-11-25T01:07:30.665Z,997.19
2018-11-25T01:08:30.722Z,997.16
2018-11-25T01:09:30.640Z,997.14
2018-11-25T01:10:30.850Z,997.20
2018-11-25T01:11:30.621Z,997.16
2018-11-25T01:12:30.614Z,997.16
2018-11-25T01:13:30.603Z,997.23
2018-11-25T01:14:30.640Z,997.17
2018-11-25T01:15:30.583Z,997.20
2018-11-25T01:16:30.568Z,997.20
2018-11-25T01:17:30.558Z,997.23
2018-11-25T01:18:30.548Z,997.19
2018-11-25T01:19:30.536Z,997.23
2018-11-25T01:20:30.571Z,997.23
2018-11-25T01:21:30.516Z,997.23
2018-11-25T01:22:30.514Z,997.27
2018-11-25T01:23:30.504Z,997.22
2018-11-25T01:24:30.486Z,997.22
2018-11-25T01:25:30.472Z,997.31
2018-11-25T01:26:30.512Z,997.26
2018-11-25T01:27:30.452Z,997.31
2018-11-25T01:28:30.442Z,997.30
2018-11-25T01:29:30.433Z,997.35
2018-11-25T01:30:30.425Z,997.31
2018-11-25T01:31:30.413Z,997.30
2018-11-25T01:32:30.569Z,997.28
2018-11-25T01:33:30.391Z,997.29
2018-11-25T01:34:30.381Z,997.26
2018-11-25T01:35:30.374Z,997.29
2018-11-25T01:36:30.362Z,997.27
2018-11-25T01:37:30.351Z,997.23
2018-11-25T01:38:30.401Z,997.24
2018-11-25T01:39:30.385Z,997.28
2018-11-25T01:40:30.319Z,997.24
2018-11-25T01:41:30.306Z,997.22
2018-11-25T01:42:30.296Z,997.25
2018-11-25T01:43:30.287Z,997.24
2018-11-25T01:44:30.308Z,997.24
2018-11-25T01:45:30.278Z,997.23
2018-11-25T01:46:30.276Z,997.22
2018-11-25T01:47:30.243Z,997.20
2018-11-25T01:48:30.232Z,997.20
2018-11-25T01:49:30.235Z,997.16
2018-11-25T01:50:30.244Z,997.21
2018-11-25T01:51:30.205Z,997.15
2018-11-25T01:52:30.200Z,997.17
2018-11-25T01:53:30.218Z,997.16
2018-11-25T01:54:30.185Z,997.16
2018-11-25T01:55:30.160Z,997.17
2018-11-25T01:56:30.201Z,997.16
2018-11-25T01:57:30.138Z,997.15
2018-11-25T01:58:30.130Z,997.13
2018-11-25T01:59:30.141Z,997.15
2018-11-25T02:00:30.107Z,997.12
2018-11-25T02:01:30.100Z,997.17
2018-11-25T02:02:30.122Z,997.10
2018-11-25T02:03:30.077Z,997.12
2018-11-25T02:04:30.077Z,997.16
2018-11-25T02:05:30.062Z,997.16
2018-11-25T02:06:30.048Z,997.07
2018-11-25T02:07:30.035Z,997.07
2018-11-25T02:08:30.065Z,997.12
2018-11-25T02:09:30.015Z,997.11
2018-11-25T02:10:30.006Z,997.09
2018-11-25T02:11:30.020Z,997.08
2018-11-25T02:12:29.996Z,997.06
2018-11-25T02:13:29.974Z,997.07
2018-11-25T02:14:30.014Z,997.05
2018-11-25T02:15:29.950Z,997.09
2018-11-25T02:16:29.958Z,997.07
2018-11-25T02:17:29.934Z,997.00
2018-11-25T02:18:29.926Z,997.04
2018-11-25T02:19:29.961Z,996.95
2018-11-25T02:20:29.930Z,997.04
2018-11-25T02:21:29.892Z,997.00
2018-11-25T02:22:29.885Z,997.05
2018-11-25T02:23:29.872Z,996.92
2018-11-25T02:24:29.905Z,997.05
2018-11-25T02:25:29.860Z,997.00
2018-11-25T02:26:29.867Z,997.02
2018-11-25T02:27:29.829Z,997.03
2018-11-25T02:28:29.821Z,996.98
2018-11-25T02:29:29.813Z,996.96
2018-11-25T02:30:29.825Z,997.03
2018-11-25T02:31:29.789Z,996.97
2018-11-25T02:32:29.810Z,996.97
2018-11-25T02:33:29.782Z,997.00
2018-11-25T02:34:29.762Z,996.96
2018-11-25T02:35:29.741Z,996.98
2018-11-25T02:36:29.759Z,996.94
2018-11-25T02:37:29.745Z,996.97
2018-11-25T02:38:29.771Z,996.98
2018-11-25T02:39:29.704Z,996.83
2018-11-25T02:40:29.727Z,996.92
2018-11-25T02:41:29.693Z,996.96
2018-11-25T02:42:29.726Z,996.91
2018-11-25T02:43:29.661Z,996.84
2018-11-25T02:44:29.720Z,996.87
2018-11-25T02:45:29.637Z,996.91
2018-11-25T02:46:29.628Z,996.87
2018-11-25T02:47:29.615Z,996.90
2018-11-25T02:48:29.607Z,996.90
2018-11-25T02:49:29.672Z,996.80
2018-11-25T02:50:29.653Z,996.90
2018-11-25T02:51:29.593Z,996.85
2018-11-25T02:52:29.567Z,996.86
2018-11-25T02:53:29.556Z,996.86
2018-11-25T02:54:29.545Z,996.81
2018-11-25T02:55:29.534Z,996.83
2018-11-25T02:56:29.563Z,996.82
2018-11-25T02:57:29.541Z,996.80
2018-11-25T02:58:29.505Z,996.86
2018-11-25T02:59:29.492Z,996.82
2018-11-25T03:00:29.483Z,996.83
2018-11-25T03:01:29.471Z,996.87
2018-11-25T03:02:29.494Z,996.75
2018-11-25T03:03:29.475Z,996.82
2018-11-25T03:04:29.439Z,996.79
2018-11-25T03:05:29.508Z,996.80
2018-11-25T03:06:29.419Z,996.80
2018-11-25T03:07:29.409Z,996.78
2018-11-25T03:08:29.458Z,996.88
2018-11-25T03:09:29.386Z,996.77
2018-11-25T03:10:29.394Z,996.86
2018-11-25T03:11:29.452Z,996.79
2018-11-25T03:12:29.362Z,996.83
2018-11-25T03:13:29.362Z,996.83
2018-11-25T03:14:29.377Z,996.81
2018-11-25T03:15:29.329Z,996.80
2018-11-25T03:16:29.341Z,996.79
2018-11-25T03:17:29.306Z,996.82
2018-11-25T03:18:29.293Z,996.78
2018-11-25T03:19:29.283Z,996.87
2018-11-25T03:20:29.329Z,996.82
2018-11-25T03:21:29.272Z,996.77
2018-11-25T03:22:29.270Z,996.83
2018-11-25T03:23:29.278Z,996.78
2018-11-25T03:24:29.232Z,996.82
2018-11-25T03:25:29.219Z,996.83
2018-11-25T03:26:29.249Z,996.83
2018-11-25T03:27:29.207Z,996.78
2018-11-25T03:28:29.187Z,996.78
2018-11-25T03:29:29.216Z,996.82
2018-11-25T03:30:29.171Z,996.79
2018-11-25T03:31:29.165Z,996.82
2018-11-25T03:32:29.176Z,996.82
2018-11-25T03:33:29.201Z,996.83
2018-11-25T03:34:29.146Z,996.83
2018-11-25T03:35:29.215Z,996.83
2018-11-25T03:36:29.111Z,996.87
2018-11-25T03:37:29.100Z,996.92
2018-11-25T03:38:29.151Z,996.91
2018-11-25T03:39:29.087Z,996.90
2018-11-25T03:40:29.072Z,996.93
2018-11-25T03:41:29.106Z,996.89
2018-11-25T03:42:29.055Z,996.94
2018-11-25T03:43:29.056Z,996.89
2018-11-25T03:44:29.068Z,996.92
2018-11-25T03:45:29.011Z,996.90
2018-11-25T03:46:29.001Z,996.96
2018-11-25T03:47:29.016Z,996.90
2018-11-25T03:48:28.980Z,996.96
2018-11-25T03:49:28.968Z,996.99
2018-11-25T03:50:28.992Z,996.92
2018-11-25T03:51:28.951Z,996.98
2018-11-25T03:52:28.947Z,997.01
2018-11-25T03:53:28.924Z,996.94
2018-11-25T03:54:29.114Z,996.99
2018-11-25T03:55:28.916Z,996.97
2018-11-25T03:56:28.927Z,997.00
2018-11-25T03:57:28.899Z,997.01
2018-11-25T03:58:28.897Z,996.96
2018-11-25T03:59:28.864Z,997.00
2018-11-25T04:00:28.859Z,997.03
2018-11-25T04:01:28.897Z,997.02
2018-11-25T04:02:28.863Z,997.01
2018-11-25T04:03:28.829Z,997.01
2018-11-25T04:04:28.812Z,996.95
2018-11-25T04:05:28.975Z,997.01
2018-11-25T04:06:28.822Z,997.03
2018-11-25T04:07:28.816Z,997.06
2018-11-25T04:08:28.772Z,997.08
2018-11-25T04:09:28.761Z,997.05
2018-11-25T04:10:28.777Z,997.10
2018-11-25T04:11:28.748Z,997.10
2018-11-25T04:12:28.794Z,997.10
2018-11-25T04:13:28.719Z,997.06
2018-11-25T04:14:28.715Z,997.08
2018-11-25T04:15:28.704Z,997.11
2018-11-25T04:16:28.688Z,997.07
2018-11-25T04:17:28.709Z,997.03
2018-11-25T04:18:28.706Z,997.10
2018-11-25T04:19:28.660Z,997.06
2018-11-25T04:20:28.649Z,997.12
2018-11-25T04:21:28.649Z,997.11
2018-11-25T04:22:28.654Z,997.10
2018-11-25T04:23:28.621Z,997.10
2018-11-25T04:24:28.651Z,997.10
2018-11-25T04:25:28.597Z,997.08
2018-11-25T04:26:28.581Z,997.09
2018-11-25T04:27:29.818Z,997.10
2018-11-25T04:28:28.563Z,997.09
2018-11-25T04:29:28.551Z,997.14
2018-11-25T04:30:28.552Z,997.12
2018-11-25T04:31:28.532Z,997.06
2018-11-25T04:32:28.549Z,997.10
2018-11-25T04:33:28.514Z,997.09
2018-11-25T04:34:28.499Z,997.08
2018-11-25T04:35:28.502Z,997.00
2018-11-25T04:36:28.533Z,997.06
2018-11-25T04:37:28.495Z,996.98
2018-11-25T04:38:28.457Z,997.02
2018-11-25T04:39:28.447Z,997.02
2018-11-25T04:40:28.438Z,996.99
2018-11-25T04:41:28.430Z,996.97
2018-11-25T04:42:28.470Z,997.05
2018-11-25T04:43:28.403Z,997.06
2018-11-25T04:44:28.395Z,997.02
2018-11-25T04:45:28.383Z,997.08
2018-11-25T04:46:28.374Z,997.06
2018-11-25T04:47:28.390Z,997.02
2018-11-25T04:48:28.387Z,997.04
2018-11-25T04:49:28.342Z,997.02
2018-11-25T04:50:28.332Z,997.04
2018-11-25T04:51:28.321Z,996.97
2018-11-25T04:52:28.342Z,997.07
2018-11-25T04:53:28.306Z,997.03
2018-11-25T04:54:28.297Z,997.04
2018-11-25T04:55:28.310Z,997.04
2018-11-25T04:56:28.300Z,997.09
2018-11-25T04:57:28.286Z,997.01
2018-11-25T04:58:28.285Z,997.06
2018-11-25T04:59:28.237Z,997.07
2018-11-25T05:00:28.234Z,997.07
2018-11-25T05:01:28.247Z,997.08
2018-11-25T05:02:28.233Z,997.02
2018-11-25T05:03:28.196Z,997.03
2018-11-25T05:04:28.186Z,997.06
2018-11-25T05:05:28.181Z,996.99
2018-11-25T05:06:28.188Z,997.02
2018-11-25T05:07:28.183Z,997.03
2018-11-25T05:08:28.146Z,997.05
2018-11-25T05:09:28.166Z,996.99
2018-11-25T05:10:28.123Z,997.01
2018-11-25T05:11:28.124Z,997.04
2018-11-25T05:12:28.141Z,997.03
2018-11-25T05:13:28.092Z,997.00
2018-11-25T05:14:28.083Z,997.04
2018-11-25T05:15:28.071Z,997.02
2018-11-25T05:16:28.061Z,997.02
2018-11-25T05:17:28.084Z,997.01
2018-11-25T05:18:28.055Z,997.07
2018-11-25T05:19:28.029Z,997.04
2018-11-25T05:20:28.021Z,997.04
2018-11-25T05:21:28.009Z,997.05
2018-11-25T05:22:27.999Z,997.01
2018-11-25T05:23:28.016Z,997.02
2018-11-25T05:24:28.001Z,997.06
2018-11-25T05:25:27.999Z,996.99
2018-11-25T05:26:27.956Z,996.94
2018-11-25T05:27:27.946Z,996.97
2018-11-25T05:28:27.969Z,997.00
2018-11-25T05:29:27.927Z,996.98
2018-11-25T05:30:27.914Z,996.99
2018-11-25T05:31:28.262Z,997.04
2018-11-25T05:32:27.893Z,997.04
2018-11-25T05:33:27.913Z,997.07
2018-11-25T05:34:27.875Z,997.11
2018-11-25T05:35:27.865Z,997.07
2018-11-25T05:36:27.854Z,997.06
2018-11-25T05:37:27.882Z,997.03
2018-11-25T05:38:27.871Z,997.05
2018-11-25T05:39:27.827Z,997.07
2018-11-25T05:40:27.814Z,997.07
2018-11-25T05:41:27.808Z,997.07
2018-11-25T05:42:27.790Z,997.09
2018-11-25T05:43:27.826Z,997.07
2018-11-25T05:44:27.772Z,997.02
2018-11-25T05:45:27.763Z,997.07
2018-11-25T05:46:27.920Z,997.10
2018-11-25T05:47:27.751Z,997.03
2018-11-25T05:48:27.784Z,997.02
2018-11-25T05:49:27.746Z,997.08
2018-11-25T05:50:27.741Z,997.10
2018-11-25T05:51:27.751Z,997.09
2018-11-25T05:52:27.706Z,997.12
2018-11-25T05:53:27.704Z,997.09
2018-11-25T05:54:27.684Z,997.09
2018-11-25T05:55:27.677Z,997.10
2018-11-25T05:56:27.676Z,997.10
2018-11-25T05:57:27.685Z,997.13
2018-11-25T05:58:27.697Z,997.12
2018-11-25T05:59:27.639Z,997.12
2018-11-25T06:00:27.627Z,997.15
2018-11-25T06:01:27.612Z,997.16
2018-11-25T06:02:27.609Z,997.16
2018-11-25T06:03:27.650Z,997.13
2018-11-25T06:04:27.580Z,997.18
2018-11-25T06:05:27.566Z,997.19
2018-11-25T06:06:27.558Z,997.18
2018-11-25T06:07:27.548Z,997.20
2018-11-25T06:08:27.580Z,997.21
2018-11-25T06:09:27.568Z,997.22
2018-11-25T06:10:27.514Z,997.23
2018-11-25T06:11:27.499Z,997.22
2018-11-25T06:12:27.511Z,997.22
2018-11-25T06:13:27.524Z,997.23
2018-11-25T06:14:27.474Z,997.20
2018-11-25T06:15:27.473Z,997.29
2018-11-25T06:16:27.516Z,997.29
2018-11-25T06:17:27.443Z,997.32
2018-11-25T06:18:27.471Z,997.33
2018-11-25T06:19:27.432Z,997.30
2018-11-25T06:20:27.416Z,997.38
2018-11-25T06:21:27.406Z,997.38
2018-11-25T06:22:27.430Z,997.37
2018-11-25T06:23:27.416Z,997.37
2018-11-25T06:24:27.377Z,997.42
2018-11-25T06:25:27.359Z,997.43
2018-11-25T06:26:27.337Z,997.48
2018-11-25T06:27:27.327Z,997.39
2018-11-25T06:28:27.378Z,997.41
2018-11-25T06:29:27.329Z,997.46
2018-11-25T06:30:27.298Z,997.47
2018-11-25T06:31:28.067Z,997.49
2018-11-25T06:32:27.273Z,997.44
2018-11-25T06:33:27.301Z,997.46
2018-11-25T06:34:27.314Z,997.47
2018-11-25T06:35:27.247Z,997.47
2018-11-25T06:36:27.232Z,997.50
2018-11-25T06:37:27.223Z,997.44
2018-11-25T06:38:27.248Z,997.48
2018-11-25T06:39:27.214Z,997.47
2018-11-25T06:40:27.231Z,997.45
2018-11-25T06:41:33.826Z,997.49
2018-11-25T06:42:28.169Z,997.48
2018-11-25T06:43:27.202Z,997.43
2018-11-25T06:44:27.158Z,997.50
2018-11-25T06:45:27.146Z,997.54
2018-11-25T06:46:27.143Z,997.53
2018-11-25T06:48:18.513Z,997.49
2018-11-25T06:49:18.472Z,997.53
2018-11-25T06:50:18.510Z,997.53
2018-11-25T06:51:18.453Z,997.53
2018-11-25T06:52:18.452Z,997.47
2018-11-25T06:53:18.505Z,997.51
2018-11-25T06:54:18.428Z,997.57
2018-11-25T06:55:18.413Z,997.55
2018-11-25T06:56:18.400Z,997.55
2018-11-25T06:57:18.392Z,997.53
2018-11-25T06:58:18.435Z,997.58
2018-11-25T06:59:18.378Z,997.54
2018-11-25T07:00:18.361Z,997.58
2018-11-25T07:01:18.383Z,997.58
2018-11-25T07:02:18.348Z,997.57
2018-11-25T07:03:18.545Z,997.57
2018-11-25T07:04:18.319Z,997.62
2018-11-25T07:05:18.403Z,997.61
2018-11-25T07:06:18.315Z,997.61
2018-11-25T07:07:18.288Z,997.59
2018-11-25T07:08:18.316Z,997.61
2018-11-25T07:09:18.273Z,997.60
2018-11-25T07:10:18.369Z,997.61
2018-11-25T07:11:18.287Z,997.54
2018-11-25T07:12:18.265Z,997.58
2018-11-25T07:13:18.254Z,997.63
2018-11-25T07:14:18.216Z,997.56
2018-11-25T07:15:18.225Z,997.57
2018-11-25T07:16:18.304Z,997.55
2018-11-25T07:17:18.285Z,997.59
2018-11-25T07:18:18.452Z,997.59
2018-11-25T07:19:18.317Z,997.57
2018-11-25T07:20:18.215Z,997.55
2018-11-25T07:21:18.238Z,997.53
2018-11-25T07:22:18.142Z,997.59
2018-11-25T07:23:18.359Z,997.60
2018-11-25T07:24:18.134Z,997.57
2018-11-25T07:25:18.167Z,997.54
2018-11-25T07:26:18.144Z,997.52
2018-11-25T07:27:18.340Z,997.57
2018-11-25T07:28:18.797Z,997.52
2018-11-25T07:29:18.070Z,997.52
2018-11-25T07:30:18.262Z,997.56
2018-11-25T07:31:18.051Z,997.55
2018-11-25T07:32:18.055Z,997.57
2018-11-25T07:33:19.362Z,997.55
2018-11-25T07:34:18.125Z,997.56
2018-11-25T07:35:18.152Z,997.56
2018-11-25T07:36:18.031Z,997.51
2018-11-25T07:37:18.131Z,997.59
2018-11-25T07:38:18.126Z,997.51
2018-11-25T07:39:17.968Z,997.53
2018-11-25T07:40:17.948Z,997.53
2018-11-25T07:41:17.964Z,997.59
2018-11-25T07:42:17.953Z,997.60
2018-11-25T07:43:18.155Z,997.59
2018-11-25T07:44:17.912Z,997.56
2018-11-25T07:45:18.092Z,997.61
2018-11-25T07:46:17.933Z,997.60
2018-11-25T07:47:17.981Z,997.59
2018-11-25T07:48:17.895Z,997.60
2018-11-25T07:49:17.934Z,997.62
2018-11-25T07:50:17.845Z,997.62
2018-11-25T07:51:17.830Z,997.68
2018-11-25T07:52:17.832Z,997.69
2018-11-25T07:53:17.867Z,997.69
2018-11-25T07:54:17.808Z,997.69
2018-11-25T07:55:17.879Z,997.70
2018-11-25T07:56:17.781Z,997.68
2018-11-25T07:57:17.857Z,997.75
2018-11-25T07:58:17.788Z,997.78
2018-11-25T07:59:25.330Z,997.80
2018-11-25T08:00:17.768Z,997.80
2018-11-25T08:01:17.739Z,997.79
2018-11-25T08:02:17.765Z,997.81
2018-11-25T08:03:17.794Z,997.86
2018-11-25T08:04:17.702Z,997.84
2018-11-25T08:05:17.709Z,997.85
2018-11-25T08:06:17.691Z,997.88
2018-11-25T08:07:17.670Z,997.83
2018-11-25T08:08:17.694Z,997.83
2018-11-25T08:09:17.692Z,997.79
2018-11-25T08:10:17.663Z,997.80
2018-11-25T08:11:17.632Z,997.81
2018-11-25T08:12:17.768Z,997.72
2018-11-25T08:13:17.982Z,997.77
2018-11-25T08:14:17.697Z,997.77
2018-11-25T08:15:17.648Z,997.76
2018-11-25T08:16:17.883Z,997.83
2018-11-25T08:17:17.564Z,997.76
2018-11-25T08:18:17.578Z,997.80
2018-11-25T08:19:17.623Z,997.77
2018-11-25T08:20:17.545Z,997.77
2018-11-25T08:21:17.527Z,997.82
2018-11-25T08:22:17.540Z,997.75
2018-11-25T08:23:17.542Z,997.78
2018-11-25T08:24:17.499Z,997.77
2018-11-25T08:25:17.487Z,997.75
2018-11-25T08:26:17.474Z,997.75
2018-11-25T08:27:18.091Z,997.73
2018-11-25T08:28:17.495Z,997.80
2018-11-25T08:29:17.814Z,997.76
2018-11-25T08:30:17.428Z,997.78
2018-11-25T08:31:17.419Z,997.80
2018-11-25T08:32:17.408Z,997.78
2018-11-25T08:33:17.437Z,997.79
2018-11-25T08:34:17.431Z,997.77
2018-11-25T08:35:17.387Z,997.85
2018-11-25T08:36:17.373Z,997.84
2018-11-25T08:37:17.358Z,997.83
2018-11-25T08:38:17.476Z,997.88
2018-11-25T08:39:17.514Z,997.88
2018-11-25T08:40:17.355Z,997.81
2018-11-25T08:41:17.331Z,997.90
2018-11-25T08:42:17.308Z,997.83
2018-11-25T08:43:17.323Z,997.83
2018-11-25T08:44:17.591Z,997.78
2018-11-25T08:45:17.296Z,997.81
2018-11-25T08:46:17.266Z,997.73
2018-11-25T08:47:17.280Z,997.75
2018-11-25T08:48:17.279Z,997.69
2018-11-25T08:49:17.236Z,997.65
2018-11-25T08:50:17.242Z,997.65
2018-11-25T08:51:17.215Z,997.61
2018-11-25T08:52:17.206Z,997.60
2018-11-25T08:53:17.222Z,997.60
2018-11-25T08:54:17.185Z,997.63
2018-11-25T08:55:17.232Z,997.58
2018-11-25T08:56:17.163Z,997.59
2018-11-25T08:57:17.152Z,997.57
2018-11-25T08:58:17.172Z,997.54
2018-11-25T08:59:17.143Z,997.54
2018-11-25T09:00:17.134Z,997.55
2018-11-25T09:01:17.114Z,997.53
2018-11-25T09:02:17.118Z,997.50
2018-11-25T09:03:17.119Z,997.56
2018-11-25T09:04:17.174Z,997.55
2018-11-25T09:05:17.080Z,997.51
2018-11-25T09:06:17.078Z,997.56
2018-11-25T09:07:17.064Z,997.62
2018-11-25T09:08:17.118Z,997.56
2018-11-25T09:09:17.105Z,997.54
2018-11-25T09:10:17.036Z,997.57
2018-11-25T09:11:17.021Z,997.53
2018-11-25T09:12:17.181Z,997.52
2018-11-25T09:13:17.032Z,997.54
2018-11-25T09:14:16.981Z,997.53
2018-11-25T09:15:16.975Z,997.55
2018-11-25T09:16:16.969Z,997.52
2018-11-25T09:17:16.949Z,997.53
2018-11-25T09:18:16.971Z,997.54
2018-11-25T09:19:17.006Z,997.54
2018-11-25T09:20:16.928Z,997.54
2018-11-25T09:21:17.181Z,997.58
2018-11-25T09:22:16.972Z,997.63
2018-11-25T09:23:16.918Z,997.59
2018-11-25T09:24:16.884Z,997.64
2018-11-25T09:25:16.885Z,997.66
2018-11-25T09:26:16.870Z,997.68
2018-11-25T09:27:17.052Z,997.66
2018-11-25T09:28:16.861Z,997.70
2018-11-25T09:29:16.832Z,997.71
2018-11-25T09:30:16.885Z,997.72
2018-11-25T09:31:16.837Z,997.70
2018-11-25T09:32:22.934Z,997.73
2018-11-25T09:33:17.827Z,997.74
2018-11-25T09:34:16.783Z,997.76
2018-11-25T09:35:16.764Z,997.76
2018-11-25T09:36:16.807Z,997.82
2018-11-25T09:37:16.784Z,997.76
2018-11-25T09:38:16.764Z,997.75
2018-11-25T09:39:16.731Z,997.76
2018-11-25T09:40:16.720Z,997.82
2018-11-25T09:41:16.710Z,997.79
2018-11-25T09:42:16.707Z,997.84
2018-11-25T09:43:16.718Z,997.86
2018-11-25T09:44:16.702Z,997.89
2018-11-25T09:45:17.022Z,997.87
2018-11-25T09:46:16.669Z,997.88
2018-11-25T09:47:16.706Z,997.91
2018-11-25T09:48:16.697Z,997.92
2018-11-25T09:49:16.656Z,997.89
2018-11-25T09:50:16.620Z,997.92
2018-11-25T09:51:16.602Z,997.92
2018-11-25T09:52:16.603Z,997.92
2018-11-25T09:53:16.837Z,997.90
2018-11-25T09:54:16.576Z,997.89
2018-11-25T09:55:16.643Z,997.85
2018-11-25T09:56:16.854Z,997.87
2018-11-25T09:57:16.986Z,997.85
2018-11-25T09:58:16.581Z,997.77
2018-11-25T09:59:16.523Z,997.79
2018-11-25T10:00:16.514Z,997.83
2018-11-25T10:01:16.561Z,997.86
2018-11-25T10:02:16.485Z,997.85
2018-11-25T10:03:16.512Z,997.85
2018-11-25T10:04:16.617Z,997.90
2018-11-25T10:05:16.463Z,997.89
2018-11-25T10:06:16.509Z,997.91
2018-11-25T10:07:16.439Z,997.90
2018-11-25T10:08:16.470Z,997.94
2018-11-25T10:09:16.420Z,997.93
2018-11-25T10:10:16.414Z,997.96
2018-11-25T10:11:16.485Z,997.90
2018-11-25T10:12:16.395Z,997.92
2018-11-25T10:13:16.403Z,997.86
2018-11-25T10:14:16.363Z,997.82
2018-11-25T10:15:16.437Z,997.84
2018-11-25T10:16:16.341Z,997.76
2018-11-25T10:17:16.343Z,997.79
2018-11-25T10:18:16.356Z,997.75
2018-11-25T10:19:16.313Z,997.78
2018-11-25T10:20:16.446Z,997.76
2018-11-25T10:21:16.290Z,997.73
2018-11-25T10:22:16.299Z,997.77
2018-11-25T10:23:16.299Z,997.75
2018-11-25T10:24:16.266Z,997.73
2018-11-25T10:25:16.264Z,997.70
2018-11-25T10:26:16.258Z,997.66
2018-11-25T10:27:16.304Z,997.63
2018-11-25T10:28:16.639Z,997.63
2018-11-25T10:29:16.221Z,997.67
2018-11-25T10:30:16.210Z,997.58
2018-11-25T10:31:16.243Z,997.69
2018-11-25T10:32:16.183Z,997.67
2018-11-25T10:33:16.195Z,997.66
2018-11-25T10:34:16.284Z,997.69
2018-11-25T10:35:16.163Z,997.75
2018-11-25T10:36:16.155Z,997.68
2018-11-25T10:37:16.132Z,997.65
2018-11-25T10:38:16.153Z,997.67
2018-11-25T10:39:17.025Z,997.67
2018-11-25T10:40:16.123Z,997.68
2018-11-25T10:41:16.289Z,997.62
2018-11-25T10:42:16.098Z,997.59
2018-11-25T10:43:16.105Z,997.56
2018-11-25T10:44:16.088Z,997.62
2018-11-25T10:45:16.054Z,997.62
2018-11-25T10:46:16.045Z,997.58
2018-11-25T10:47:16.046Z,997.51
2018-11-25T10:48:16.089Z,997.52
2018-11-25T10:49:16.089Z,997.52
2018-11-25T10:50:16.004Z,997.53
2018-11-25T10:51:15.988Z,997.47
2018-11-25T10:52:15.979Z,997.51
2018-11-25T10:53:16.012Z,997.47
2018-11-25T10:54:15.958Z,997.49
2018-11-25T10:55:16.088Z,997.52
2018-11-25T10:56:16.806Z,997.45
2018-11-25T10:57:15.933Z,997.48
2018-11-25T10:58:16.074Z,997.44
2018-11-25T10:59:15.914Z,997.48
2018-11-25T11:00:15.912Z,997.42
2018-11-25T11:01:15.920Z,997.47
2018-11-25T11:02:15.879Z,997.50
2018-11-25T11:03:15.907Z,997.54
2018-11-25T11:04:15.890Z,997.58
2018-11-25T11:05:15.872Z,997.57
2018-11-25T11:06:15.836Z,997.58
2018-11-25T11:07:15.818Z,997.60
2018-11-25T11:08:15.859Z,997.55
2018-11-25T11:09:15.805Z,997.51
2018-11-25T11:10:15.789Z,997.46
2018-11-25T11:11:15.811Z,997.50
2018-11-25T11:12:15.780Z,997.48
2018-11-25T11:13:15.789Z,997.55
2018-11-25T11:14:15.746Z,997.52
2018-11-25T11:15:15.749Z,997.54
2018-11-25T11:16:15.729Z,997.52
2018-11-25T11:17:15.717Z,997.57
2018-11-25T11:18:15.812Z,997.64
2018-11-25T11:19:15.694Z,997.57
2018-11-25T11:20:15.697Z,997.50
2018-11-25T11:21:15.675Z,997.59
2018-11-25T11:22:15.669Z,997.54
2018-11-25T11:23:15.685Z,997.51
2018-11-25T11:24:15.726Z,997.53
2018-11-25T11:25:15.688Z,997.56
2018-11-25T11:26:15.623Z,997.49
2018-11-25T11:27:15.618Z,997.51
2018-11-25T11:28:15.642Z,997.49
2018-11-25T11:29:15.654Z,997.48
2018-11-25T11:30:15.587Z,997.47
2018-11-25T11:31:15.573Z,997.51
2018-11-25T11:32:15.600Z,997.48
2018-11-25T11:33:15.590Z,997.49
2018-11-25T11:34:15.541Z,997.52
2018-11-25T11:35:15.540Z,997.47
2018-11-25T11:36:15.519Z,997.49
2018-11-25T11:37:15.519Z,997.47
2018-11-25T11:38:15.661Z,997.50
2018-11-25T11:39:15.517Z,997.48
2018-11-25T11:40:15.508Z,997.44
2018-11-25T11:41:15.469Z,997.46
2018-11-25T11:42:15.501Z,997.44
2018-11-25T11:43:15.478Z,997.42
2018-11-25T11:44:15.437Z,997.47
2018-11-25T11:45:15.485Z,997.36
2018-11-25T11:46:15.433Z,997.55
2018-11-25T11:47:15.444Z,997.45
2018-11-25T11:48:15.423Z,997.46
2018-11-25T11:49:15.383Z,997.45
2018-11-25T11:50:15.378Z,997.44
2018-11-25T11:51:15.366Z,997.43
2018-11-25T11:52:15.384Z,997.39
2018-11-25T11:53:15.447Z,997.32
2018-11-25T11:54:15.361Z,997.37
2018-11-25T11:55:15.341Z,997.36
2018-11-25T11:56:15.481Z,997.41
2018-11-25T11:57:15.312Z,997.42
2018-11-25T11:58:15.736Z,997.34
2018-11-25T11:59:15.300Z,997.43
2018-11-25T12:00:15.278Z,997.41
2018-11-25T12:01:15.275Z,997.36
2018-11-25T12:02:15.260Z,997.38
2018-11-25T12:03:15.277Z,997.32
2018-11-25T12:04:15.227Z,997.39
2018-11-25T12:05:15.219Z,997.37
2018-11-25T12:06:15.277Z,997.41
2018-11-25T12:07:15.206Z,997.42
2018-11-25T12:08:15.227Z,997.43
2018-11-25T12:09:15.226Z,997.42
2018-11-25T12:10:24.724Z,997.37
2018-11-25T12:11:15.156Z,997.41
2018-11-25T12:12:15.149Z,997.40
2018-11-25T12:13:15.226Z,997.43
2018-11-25T12:14:15.131Z,997.40
2018-11-25T12:15:15.119Z,997.37
2018-11-25T12:16:15.163Z,997.42
2018-11-25T12:17:15.137Z,997.46
2018-11-25T12:18:15.114Z,997.42
2018-11-25T12:19:15.074Z,997.45
2018-11-25T12:20:15.074Z,997.46
2018-11-25T12:21:15.122Z,997.44
2018-11-25T12:22:15.072Z,997.48
2018-11-25T12:23:15.070Z,997.49
2018-11-25T12:24:15.027Z,997.52
2018-11-25T12:25:15.026Z,997.49
2018-11-25T12:26:15.009Z,997.46
2018-11-25T12:27:15.041Z,997.48
2018-11-25T12:28:15.011Z,997.53
2018-11-25T12:29:14.972Z,997.49